Time;durP1;ratioP1;P1;durP2;ratioP2;P2;SDS_P1;SDS_P2;PMS_P1;PMS_P2;Temp;Humidity;BMP_temperature;BMP_pressure;BME280_temperature;BME280_humidity;BME280_pressure;Samples;Min_cycle;Max_cycle;Signal;HPM_P1;HPM_P2
2022/05/01 00:01:39;;;;;;;0.80;0.80;;;5.80;99.90;;;;;;5048569;28;20213;-77
2022/05/01 00:04:05;;;;;;;0.70;0.70;;;5.80;99.90;;;;;;5033995;28;20206;-77
2022/05/01 00:06:33;;;;;;;0.70;0.70;;;5.80;99.90;;;;;;5015818;28;20565;-79
2022/05/01 00:09:00;;;;;;;0.70;0.70;;;5.80;99.90;;;;;;5015882;28;20660;-77
2022/05/01 00:11:26;;;;;;;0.70;0.70;;;5.70;99.90;;;;;;5033385;28;20240;-77
2022/05/01 00:13:52;;;;;;;0.70;0.70;;;5.70;99.90;;;;;;5032118;28;20198;-77
2022/05/01 00:16:18;;;;;;;0.70;0.70;;;5.60;99.90;;;;;;5036200;28;20279;-78
2022/05/01 00:18:44;;;;;;;0.70;0.70;;;5.70;99.90;;;;;;5072122;28;20196;-77
2022/05/01 00:21:10;;;;;;;0.70;0.70;;;5.60;99.90;;;;;;5048600;28;20261;-77
2022/05/01 00:23:37;;;;;;;0.70;0.70;;;5.60;99.90;;;;;;5015549;28;20253;-79
2022/05/01 00:26:05;;;;;;;0.75;0.75;;;5.60;99.90;;;;;;5033530;28;20194;-79
2022/05/01 00:28:38;;;;;;;0.70;0.70;;;5.60;99.90;;;;;;5015555;28;20205;-77
2022/05/01 00:31:05;;;;;;;0.70;0.70;;;5.60;99.90;;;;;;5033174;28;20194;-78
2022/05/01 00:36:25;;;;;;;0.70;0.70;;;5.50;99.90;;;;;;5033509;28;20201;-78
2022/05/01 00:39:00;;;;;;;0.70;0.70;;;5.50;99.90;;;;;;5015529;28;20236;-77
2022/05/01 00:41:27;;;;;;;0.70;0.70;;;5.50;99.90;;;;;;5034775;28;20189;-77
2022/05/01 00:44:12;;;;;;;0.70;0.70;;;5.50;99.90;;;;;;5036819;28;20197;-77
2022/05/01 00:46:41;;;;;;;0.70;0.70;;;5.50;99.90;;;;;;5015209;28;20606;-78
2022/05/01 00:49:11;;;;;;;0.80;0.80;;;5.50;99.90;;;;;;5033123;28;20281;-77
2022/05/01 00:51:50;;;;;;;0.70;0.70;;;5.40;99.90;;;;;;5032682;28;20677;-77
2022/05/01 00:54:18;;;;;;;0.75;0.75;;;5.40;99.90;;;;;;5014249;28;20222;-78
2022/05/01 00:56:46;;;;;;;0.82;0.82;;;5.40;99.90;;;;;;5015046;28;20230;-78
2022/05/01 00:59:12;;;;;;;0.80;0.80;;;5.40;99.90;;;;;;5032857;28;20272;-77
2022/05/01 01:01:42;;;;;;;0.77;0.77;;;5.30;99.90;;;;;;5014334;28;20213;-81
2022/05/01 01:04:09;;;;;;;0.70;0.70;;;5.30;99.90;;;;;;5015692;28;20202;-81
2022/05/01 01:06:35;;;;;;;0.70;0.70;;;5.30;99.90;;;;;;5015482;28;20194;-81
2022/05/01 01:09:01;;;;;;;0.73;0.73;;;5.30;99.90;;;;;;5033280;28;20217;-81
2022/05/01 01:11:26;;;;;;;0.77;0.77;;;5.30;99.90;;;;;;5032888;28;20194;-81
2022/05/01 01:13:52;;;;;;;0.70;0.70;;;5.30;99.90;;;;;;5033211;28;20212;-84
2022/05/01 01:16:18;;;;;;;0.70;0.70;;;5.30;99.90;;;;;;5033416;28;20529;-81
2022/05/01 01:18:45;;;;;;;0.90;0.90;;;5.30;99.90;;;;;;5015502;28;20324;-81
2022/05/01 01:21:11;;;;;;;0.77;0.77;;;5.30;99.90;;;;;;5023514;28;20757;-81
2022/05/01 01:23:39;;;;;;;0.70;0.70;;;5.20;99.90;;;;;;5054913;28;20200;-81
2022/05/01 01:26:06;;;;;;;1.00;1.00;;;5.20;99.90;;;;;;5071762;28;20195;-81
2022/05/01 01:28:36;;;;;;;0.70;0.70;;;5.20;99.90;;;;;;5055039;28;20223;-81
2022/05/01 01:33:51;;;;;;;0.70;0.70;;;5.20;99.90;;;;;;5053284;28;20211;-81
2022/05/01 01:36:20;;;;;;;0.60;0.60;;;5.20;99.90;;;;;;5034970;28;20255;-82
2022/05/01 01:38:46;;;;;;;0.70;0.70;;;5.20;99.90;;;;;;5051592;28;20720;-82
2022/05/01 01:41:13;;;;;;;0.82;0.82;;;5.20;99.90;;;;;;5053058;28;20221;-82
2022/05/01 01:43:42;;;;;;;0.80;0.80;;;5.20;99.90;;;;;;5035157;28;20624;-81
2022/05/01 01:46:08;;;;;;;0.77;0.77;;;5.20;99.90;;;;;;5053372;28;20213;-82
2022/05/01 01:48:33;;;;;;;0.70;0.70;;;5.20;99.90;;;;;;5034824;28;20667;-82
2022/05/01 01:51:05;;;;;;;0.70;0.70;;;5.20;99.90;;;;;;5051915;28;20197;-83
2022/05/01 01:53:33;;;;;;;0.70;0.70;;;5.30;99.90;;;;;;5051609;28;20217;-81
2022/05/01 01:56:00;;;;;;;0.70;0.70;;;5.20;99.90;;;;;;5051526;28;20204;-81
2022/05/01 01:58:28;;;;;;;0.70;0.70;;;5.20;99.90;;;;;;5051809;28;20691;-81
2022/05/01 02:00:54;;;;;;;1.40;1.30;;;5.20;99.90;;;;;;5049008;28;20197;-80
2022/05/01 02:03:20;;;;;;;0.70;0.70;;;5.10;99.90;;;;;;5034423;28;20206;-80
2022/05/01 02:05:49;;;;;;;0.80;0.80;;;5.10;99.90;;;;;;5055635;28;20196;-81
2022/05/01 02:08:16;;;;;;;0.70;0.70;;;5.10;99.90;;;;;;5044987;28;20667;-81
2022/05/01 02:10:44;;;;;;;0.70;0.70;;;5.10;99.90;;;;;;5057919;28;20196;-80
2022/05/01 02:13:10;;;;;;;0.80;0.80;;;5.10;99.90;;;;;;5057926;28;20223;-81
2022/05/01 02:15:37;;;;;;;0.68;0.68;;;5.10;99.90;;;;;;5057970;28;20623;-83
2022/05/01 02:18:05;;;;;;;0.70;0.70;;;5.10;99.90;;;;;;5057944;28;20220;-81
2022/05/01 02:23:17;;;;;;;0.70;0.70;;;5.00;99.90;;;;;;5076495;28;20232;-81
2022/05/01 02:25:43;;;;;;;0.70;0.70;;;5.00;99.90;;;;;;5057858;28;20222;-81
2022/05/01 02:28:10;;;;;;;0.70;0.70;;;5.00;99.90;;;;;;5076373;28;20196;-81
2022/05/01 02:30:36;;;;;;;0.70;0.70;;;5.00;99.90;;;;;;5075891;28;20189;-81
2022/05/01 02:33:02;;;;;;;1.17;1.08;;;5.00;99.90;;;;;;5057882;28;20564;-82
2022/05/01 02:35:28;;;;;;;1.00;0.95;;;5.00;99.90;;;;;;5066906;28;20196;-81
2022/05/01 02:37:54;;;;;;;0.80;0.80;;;5.10;99.90;;;;;;5055989;28;20323;-81
2022/05/01 02:40:19;;;;;;;0.80;0.80;;;5.10;99.90;;;;;;5055672;28;20196;-82
2022/05/01 02:42:45;;;;;;;0.80;0.80;;;5.30;99.90;;;;;;5054593;28;20567;-81
2022/05/01 02:45:11;;;;;;;0.90;0.90;;;5.50;99.90;;;;;;5055321;28;20216;-81
2022/05/01 02:47:37;;;;;;;0.70;0.70;;;5.50;99.90;;;;;;5054214;28;20207;-81
2022/05/01 02:50:03;;;;;;;0.70;0.70;;;5.60;99.90;;;;;;5055823;28;20219;-81
2022/05/01 02:52:29;;;;;;;0.80;0.80;;;5.70;99.90;;;;;;5054121;28;20213;-80
2022/05/01 02:54:54;;;;;;;0.80;0.80;;;5.70;99.90;;;;;;5054376;28;20611;-81
2022/05/01 02:57:22;;;;;;;0.70;0.70;;;5.80;99.90;;;;;;5054166;28;20194;-81
2022/05/01 02:59:47;;;;;;;0.70;0.70;;;5.80;99.90;;;;;;5055863;28;20185;-80
2022/05/01 03:02:15;;;;;;;0.70;0.70;;;5.70;99.90;;;;;;5062261;28;20274;-81
2022/05/01 03:04:40;;;;;;;0.70;0.70;;;5.70;99.90;;;;;;5046906;28;20635;-82
2022/05/01 03:07:07;;;;;;;0.80;0.80;;;5.60;99.90;;;;;;5057642;28;20224;-81
2022/05/01 03:09:34;;;;;;;0.70;0.70;;;5.50;99.90;;;;;;5073826;28;20205;-81
2022/05/01 03:12:01;;;;;;;0.80;0.80;;;5.70;99.90;;;;;;5057079;28;20586;-80
2022/05/01 03:14:27;;;;;;;0.80;0.80;;;5.70;99.90;;;;;;5057019;28;20196;-81
2022/05/01 03:16:52;;;;;;;0.70;0.70;;;5.70;99.90;;;;;;5057248;28;20197;-81
2022/05/01 03:22:13;;;;;;;0.70;0.70;;;5.70;99.90;;;;;;5075397;28;20238;-82
2022/05/01 03:24:40;;;;;;;0.73;0.73;;;5.70;99.90;;;;;;5057272;28;20235;-80
2022/05/01 03:27:06;;;;;;;0.80;0.80;;;5.60;99.90;;;;;;5057360;28;20556;-81
2022/05/01 03:29:32;;;;;;;0.70;0.70;;;5.60;99.90;;;;;;5056732;28;20197;-81
2022/05/01 03:31:59;;;;;;;0.80;0.80;;;5.60;99.90;;;;;;5042743;28;20695;-81
2022/05/01 03:34:26;;;;;;;0.70;0.70;;;5.50;99.90;;;;;;5033605;28;20501;-81
2022/05/01 03:36:56;;;;;;;0.70;0.70;;;5.50;99.90;;;;;;5035030;28;20269;-81
2022/05/01 03:39:22;;;;;;;0.90;0.90;;;5.50;99.90;;;;;;5034531;28;20222;-81
2022/05/01 03:41:48;;;;;;;0.70;0.70;;;5.50;99.90;;;;;;5044208;28;20216;-80
2022/05/01 03:44:13;;;;;;;0.70;0.70;;;5.50;99.90;;;;;;5053267;28;20205;-81
2022/05/01 03:46:39;;;;;;;0.95;0.95;;;5.50;99.90;;;;;;5053319;28;20208;-81
2022/05/01 03:49:11;;;;;;;0.70;0.70;;;5.60;99.90;;;;;;5053470;28;20209;-81
2022/05/01 03:51:37;;;;;;;0.75;0.75;;;5.60;99.90;;;;;;5052973;28;20701;-81
2022/05/01 03:54:03;;;;;;;0.70;0.70;;;5.70;99.90;;;;;;5036879;28;20560;-81
2022/05/01 03:56:30;;;;;;;0.70;0.70;;;5.70;99.90;;;;;;5053110;28;20194;-81
2022/05/01 03:58:57;;;;;;;1.17;1.10;;;5.80;99.90;;;;;;5054356;28;20233;-81
2022/05/01 04:01:24;;;;;;;0.70;0.70;;;5.80;99.90;;;;;;5047663;28;20220;-81
2022/05/01 04:03:49;;;;;;;0.60;0.60;;;5.80;99.90;;;;;;5056610;28;20193;-81
2022/05/01 04:06:15;;;;;;;0.85;0.85;;;5.80;99.90;;;;;;5056572;28;20196;-82
2022/05/01 04:08:42;;;;;;;0.70;0.70;;;5.90;99.90;;;;;;5072683;28;20240;-81
2022/05/01 04:11:08;;;;;;;0.80;0.80;;;5.90;99.90;;;;;;5073983;28;20239;-81
2022/05/01 04:13:35;;;;;;;0.60;0.60;;;5.90;99.90;;;;;;5073709;28;20201;-81
2022/05/01 04:16:01;;;;;;;0.68;0.68;;;5.90;99.90;;;;;;5055905;28;20193;-81
2022/05/01 04:18:27;;;;;;;0.68;0.68;;;6.00;99.90;;;;;;5073953;28;20192;-82
2022/05/01 04:20:53;;;;;;;0.80;0.80;;;5.90;99.90;;;;;;5072313;28;21662;-81
2022/05/01 04:23:19;;;;;;;0.70;0.70;;;6.00;99.90;;;;;;5056039;28;20204;-81
2022/05/01 04:25:45;;;;;;;0.70;0.70;;;6.00;99.90;;;;;;5055822;28;20657;-81
2022/05/01 04:28:12;;;;;;;0.60;0.60;;;6.00;99.90;;;;;;5044667;28;20660;-81
2022/05/01 04:30:39;;;;;;;0.70;0.70;;;6.10;99.90;;;;;;5052405;28;20205;-81
2022/05/01 04:33:13;;;;;;;0.60;0.60;;;6.20;99.90;;;;;;5053647;28;20210;-81
2022/05/01 04:35:46;;;;;;;0.70;0.70;;;6.20;99.90;;;;;;5053385;28;20220;-81
2022/05/01 04:38:17;;;;;;;0.70;0.70;;;6.20;99.90;;;;;;5054457;28;20225;-81
2022/05/01 04:40:46;;;;;;;0.95;0.95;;;6.30;99.90;;;;;;5052311;28;20639;-80
2022/05/01 04:43:26;;;;;;;0.70;0.70;;;6.40;99.90;;;;;;5053360;28;20277;-81
2022/05/01 04:45:56;;;;;;;0.70;0.70;;;6.40;99.90;;;;;;5052399;28;20200;-81
2022/05/01 04:48:24;;;;;;;0.90;0.90;;;6.50;99.90;;;;;;5051894;28;20202;-81
2022/05/01 04:50:50;;;;;;;0.70;0.70;;;6.60;99.90;;;;;;5051994;28;20722;-81
2022/05/01 04:53:18;;;;;;;0.70;0.70;;;6.60;99.90;;;;;;5052028;28;20304;-81
2022/05/01 04:55:46;;;;;;;0.70;0.70;;;6.70;99.90;;;;;;5051755;28;20201;-80
2022/05/01 04:58:14;;;;;;;0.70;0.70;;;6.80;99.90;;;;;;5069698;28;20252;-81
2022/05/01 05:00:40;;;;;;;1.10;1.10;;;6.90;99.90;;;;;;5062906;28;20197;-81
2022/05/01 05:03:06;;;;;;;0.70;0.70;;;7.10;99.90;;;;;;5053250;28;20763;-80
2022/05/01 05:05:33;;;;;;;0.70;0.70;;;7.10;99.90;;;;;;5053062;28;20222;-80
2022/05/01 05:09:53;;;;;;;0.68;0.68;;;7.20;99.90;;;;;;5053297;28;20614;-82
2022/05/01 05:10:47;;;;;;;0.63;0.63;;;7.30;99.90;;;;;;5052857;28;20197;-81
2022/05/01 05:13:22;;;;;;;0.70;0.70;;;7.40;99.90;;;;;;5051706;28;20209;-81
2022/05/01 05:15:48;;;;;;;0.60;0.60;;;7.50;99.90;;;;;;5051478;28;20197;-80
2022/05/01 05:18:14;;;;;;;1.13;1.13;;;7.50;99.90;;;;;;5051580;28;20201;-81
2022/05/01 05:20:40;;;;;;;0.60;0.60;;;7.60;99.90;;;;;;5052645;28;20201;-81
2022/05/01 05:23:06;;;;;;;0.70;0.70;;;7.60;99.90;;;;;;5053109;28;20667;-81
2022/05/01 05:25:32;;;;;;;0.80;0.80;;;7.70;99.90;;;;;;5051068;28;20198;-80
2022/05/01 05:27:58;;;;;;;3.53;1.33;;;7.80;99.90;;;;;;5052805;28;20205;-80
2022/05/01 05:30:23;;;;;;;0.70;0.70;;;7.90;99.90;;;;;;5054677;28;20287;-80
2022/05/01 05:32:49;;;;;;;0.63;0.63;;;8.00;99.90;;;;;;5054974;28;20212;-81
2022/05/01 05:35:15;;;;;;;0.70;0.70;;;8.00;99.90;;;;;;5057202;28;20193;-82
2022/05/01 05:37:41;;;;;;;0.70;0.70;;;8.00;99.90;;;;;;5034914;28;20198;-80
2022/05/01 05:40:07;;;;;;;0.70;0.70;;;8.10;99.90;;;;;;5055090;28;20201;-81
2022/05/01 05:42:33;;;;;;;0.70;0.70;;;8.20;99.90;;;;;;5055469;28;20288;-81
2022/05/01 05:45:00;;;;;;;0.70;0.70;;;8.40;99.90;;;;;;5039116;28;20558;-81
2022/05/01 05:47:26;;;;;;;0.60;0.60;;;8.40;99.90;;;;;;5038566;28;20262;-81
2022/05/01 05:49:51;;;;;;;0.60;0.60;;;8.50;99.90;;;;;;5056655;28;20193;-81
2022/05/01 05:52:17;;;;;;;0.65;0.65;;;8.60;99.90;;;;;;5038510;28;20220;-81
2022/05/01 05:54:43;;;;;;;0.60;0.60;;;8.70;99.90;;;;;;5038585;28;20201;-81
2022/05/01 05:57:09;;;;;;;0.60;0.60;;;8.70;99.90;;;;;;5056665;28;20660;-80
2022/05/01 05:59:35;;;;;;;0.60;0.60;;;8.70;99.90;;;;;;5038106;28;20280;-81
2022/05/01 06:02:02;;;;;;;0.70;0.70;;;8.70;99.90;;;;;;5056403;28;20229;-81
2022/05/01 06:04:28;;;;;;;0.70;0.70;;;8.80;99.90;;;;;;5055146;28;20212;-81
2022/05/01 06:06:53;;;;;;;0.60;0.60;;;8.90;99.90;;;;;;5055217;28;20202;-81
2022/05/01 06:09:19;;;;;;;0.65;0.65;;;9.00;99.90;;;;;;5038050;28;20668;-82
2022/05/01 06:11:45;;;;;;;0.65;0.65;;;9.10;99.90;;;;;;5038367;28;20224;-81
2022/05/01 06:14:10;;;;;;;0.70;0.70;;;9.30;99.90;;;;;;5056155;28;20217;-81
2022/05/01 06:16:37;;;;;;;0.70;0.70;;;9.30;99.90;;;;;;5038098;28;20602;-80
2022/05/01 06:19:03;;;;;;;0.70;0.70;;;9.40;99.90;;;;;;5056410;28;20194;-80
2022/05/01 06:21:29;;;;;;;0.60;0.60;;;9.40;99.90;;;;;;5069227;28;20224;-81
2022/05/01 06:23:55;;;;;;;0.60;0.60;;;9.40;99.90;;;;;;5076550;28;20192;-81
2022/05/01 06:26:21;;;;;;;0.80;0.80;;;9.50;99.90;;;;;;5076263;28;20237;-80
2022/05/01 06:28:47;;;;;;;0.80;0.80;;;9.70;99.90;;;;;;5076500;28;20193;-80
2022/05/01 06:31:15;;;;;;;0.70;0.70;;;9.80;99.90;;;;;;5063038;28;20236;-81
2022/05/01 06:33:41;;;;;;;0.70;0.70;;;9.90;99.90;;;;;;5057585;28;20213;-80
2022/05/01 06:36:08;;;;;;;0.50;0.50;;;9.80;99.90;;;;;;5038253;28;20676;-81
2022/05/01 06:38:34;;;;;;;0.60;0.60;;;9.80;99.90;;;;;;5038317;28;20243;-81
2022/05/01 06:41:03;;;;;;;0.70;0.70;;;9.80;99.90;;;;;;5054784;28;20272;-80
2022/05/01 06:43:29;;;;;;;0.70;0.70;;;9.80;99.90;;;;;;5037843;28;20197;-79
2022/05/01 06:45:55;;;;;;;0.60;0.60;;;9.90;99.90;;;;;;5037810;28;20679;-79
2022/05/01 06:48:21;;;;;;;0.75;0.75;;;10.30;99.90;;;;;;5055866;28;20205;-79
2022/05/01 06:50:47;;;;;;;0.80;0.80;;;10.60;99.90;;;;;;5055080;28;20248;-80
2022/05/01 06:53:13;;;;;;;0.70;0.70;;;10.90;99.90;;;;;;5055572;28;20728;-81
2022/05/01 06:55:38;;;;;;;0.50;0.50;;;11.10;99.90;;;;;;5037170;28;20285;-80
2022/05/01 06:58:04;;;;;;;0.60;0.60;;;11.30;99.90;;;;;;5055583;28;20194;-82
2022/05/01 07:00:30;;;;;;;0.60;0.60;;;11.30;99.90;;;;;;5049910;28;20198;-80
2022/05/01 07:02:56;;;;;;;0.60;0.60;;;11.10;99.90;;;;;;5035041;28;20194;-80
2022/05/01 07:05:22;;;;;;;0.60;0.60;;;11.10;99.90;;;;;;5034665;28;20201;-80
2022/05/01 07:07:50;;;;;;;0.60;0.60;;;11.20;99.90;;;;;;5034873;28;20668;-79
2022/05/01 07:10:17;;;;;;;0.50;0.50;;;11.10;99.90;;;;;;5034652;28;20221;-81
2022/05/01 07:12:42;;;;;;;0.60;0.60;;;11.20;99.90;;;;;;5033234;28;20248;-80
2022/05/01 07:15:09;;;;;;;0.57;0.57;;;11.30;99.90;;;;;;5033450;28;20229;-80
2022/05/01 07:17:34;;;;;;;0.57;0.57;;;11.40;99.90;;;;;;5048780;28;20564;-80
2022/05/01 07:20:02;;;;;;;0.60;0.60;;;11.30;99.80;;;;;;5055021;28;20205;-79
2022/05/01 07:22:28;;;;;;;0.70;0.70;;;11.20;99.90;;;;;;5054149;28;20244;-80
2022/05/01 07:24:54;;;;;;;0.85;0.85;;;11.20;99.90;;;;;;5069841;28;20275;-79
2022/05/01 07:27:20;;;;;;;0.50;0.50;;;11.30;99.50;;;;;;5068270;28;20684;-81
2022/05/01 07:29:46;;;;;;;0.50;0.50;;;11.40;99.40;;;;;;5053056;28;20208;-80
2022/05/01 07:32:12;;;;;;;0.60;0.60;;;11.70;99.90;;;;;;5054334;28;20290;-80
2022/05/01 07:34:38;;;;;;;0.80;0.80;;;12.10;99.90;;;;;;5054221;28;20193;-80
2022/05/01 07:37:04;;;;;;;0.50;0.50;;;12.30;98.10;;;;;;5054376;28;20185;-81
2022/05/01 07:39:30;;;;;;;0.75;0.75;;;12.50;96.60;;;;;;5036062;28;20696;-81
2022/05/01 07:41:56;;;;;;;0.55;0.55;;;12.40;97.00;;;;;;5054116;28;20664;-79
2022/05/01 07:44:22;;;;;;;0.50;0.50;;;12.40;96.00;;;;;;5052601;28;20201;-79
2022/05/01 07:46:48;;;;;;;0.50;0.50;;;12.60;95.30;;;;;;5036100;28;20224;-79
2022/05/01 07:49:14;;;;;;;0.40;0.40;;;12.90;94.70;;;;;;5073884;28;20224;-79
2022/05/01 07:51:40;;;;;;;0.50;0.50;;;13.10;96.00;;;;;;5055665;28;21662;-79
2022/05/01 07:54:06;;;;;;;0.50;0.50;;;13.40;92.60;;;;;;5074111;28;20204;-79
2022/05/01 07:56:33;;;;;;;0.50;0.50;;;13.50;92.40;;;;;;5073586;28;20185;-79
2022/05/01 07:58:59;;;;;;;0.40;0.40;;;13.60;92.40;;;;;;5073898;28;20196;-80
2022/05/01 08:01:25;;;;;;;0.40;0.40;;;13.90;92.00;;;;;;5038979;28;20561;-79
2022/05/01 08:06:36;;;;;;;0.50;0.50;;;14.50;90.40;;;;;;5053852;28;20192;-80
2022/05/01 08:09:03;;;;;;;0.40;0.40;;;14.70;90.90;;;;;;5053621;28;20563;-79
2022/05/01 08:11:29;;;;;;;0.50;0.50;;;14.80;89.10;;;;;;5035235;28;20205;-79
2022/05/01 08:13:55;;;;;;;0.40;0.40;;;14.80;84.00;;;;;;5069898;28;20197;-78
2022/05/01 08:16:21;;;;;;;0.40;0.40;;;14.60;85.20;;;;;;5055245;28;20193;-79
2022/05/01 08:21:32;;;;;;;0.60;0.60;;;14.50;82.10;;;;;;5072972;28;20252;-78
2022/05/01 08:24:00;;;;;;;0.43;0.43;;;14.30;85.10;;;;;;5037940;28;20209;-79
2022/05/01 08:26:26;;;;;;;0.38;0.38;;;14.30;86.50;;;;;;5035201;28;20566;-77
2022/05/01 08:28:54;;;;;;;0.40;0.40;;;14.70;83.30;;;;;;5035336;28;20292;-79
2022/05/01 08:31:20;;;;;;;0.40;0.40;;;15.40;82.60;;;;;;5034694;28;20208;-78
2022/05/01 08:33:47;;;;;;;0.40;0.40;;;15.90;76.00;;;;;;5035300;28;20240;-78
2022/05/01 08:36:13;;;;;;;0.35;0.35;;;15.70;73.40;;;;;;5035234;28;20194;-79
2022/05/01 08:38:39;;;;;;;0.40;0.40;;;15.20;79.50;;;;;;5052908;28;20204;-79
2022/05/01 08:41:07;;;;;;;0.40;0.40;;;15.20;75.50;;;;;;5035163;28;20193;-79
2022/05/01 08:43:34;;;;;;;0.40;0.40;;;15.20;80.30;;;;;;5066676;28;20231;-79
2022/05/01 08:46:30;;;;;;;0.30;0.30;;;15.20;78.30;;;;;;5054960;28;20682;-79
2022/05/01 08:49:06;;;;;;;0.30;0.30;;;15.80;71.90;;;;;;5072926;28;20639;-79
2022/05/01 08:51:34;;;;;;;0.30;0.30;;;16.00;72.50;;;;;;5054654;28;20279;-80
2022/05/01 08:54:13;;;;;;;0.75;0.75;;;16.30;69.00;;;;;;5054992;28;20193;-78
2022/05/01 08:56:41;;;;;;;0.40;0.40;;;16.10;73.80;;;;;;5054686;28;20280;-80
2022/05/01 08:59:11;;;;;;;0.40;0.40;;;16.40;72.50;;;;;;5072869;28;20196;-79
2022/05/01 09:01:39;;;;;;;0.35;0.35;;;16.40;70.30;;;;;;5036691;28;20297;-78
2022/05/01 09:04:09;;;;;;;0.30;0.30;;;16.50;67.30;;;;;;5051820;28;20595;-79
2022/05/01 09:06:36;;;;;;;0.30;0.30;;;16.30;67.60;;;;;;5051343;28;20276;-80
2022/05/01 09:09:06;;;;;;;0.30;0.30;;;16.30;68.30;;;;;;5051293;28;20252;-78
2022/05/01 09:14:16;;;;;;;0.30;0.30;;;16.90;68.10;;;;;;5052375;28;20250;-79
2022/05/01 09:16:41;;;;;;;0.30;0.30;;;17.20;63.90;;;;;;5034548;28;20193;-80
2022/05/01 09:19:07;;;;;;;0.30;0.30;;;17.30;66.50;;;;;;5048998;28;20297;-78
2022/05/01 09:21:54;;;;;;;0.30;0.30;;;17.40;65.70;;;;;;5030720;28;20574;-78
2022/05/01 09:24:27;;;;;;;0.30;0.30;;;17.20;65.00;;;;;;5031100;28;20204;-78
2022/05/01 09:26:53;;;;;;;0.60;0.60;;;17.00;65.50;;;;;;5031245;28;20191;-79
2022/05/01 09:29:31;;;;;;;0.30;0.30;;;17.30;69.60;;;;;;5031093;28;20292;-78
2022/05/01 09:31:58;;;;;;;0.40;0.40;;;17.90;69.90;;;;;;5031122;28;20220;-79
2022/05/01 09:34:30;;;;;;;0.30;0.30;;;18.30;65.30;;;;;;5030847;28;20202;-79
2022/05/01 09:36:57;;;;;;;0.20;0.20;;;18.50;64.50;;;;;;5032468;28;20190;-79
2022/05/01 09:39:25;;;;;;;0.20;0.20;;;18.80;64.60;;;;;;5031837;28;20660;-79
2022/05/01 09:41:53;;;;;;;0.30;0.30;;;18.90;62.30;;;;;;5032304;28;20186;-79
2022/05/01 09:44:20;;;;;;;0.50;0.50;;;19.10;63.00;;;;;;5014616;28;20202;-79
2022/05/01 09:46:48;;;;;;;0.20;0.20;;;19.50;58.60;;;;;;5014641;28;20505;-80
2022/05/01 09:49:15;;;;;;;0.30;0.30;;;19.80;60.50;;;;;;5014675;28;20202;-80
2022/05/01 09:51:46;;;;;;;0.20;0.20;;;20.30;58.90;;;;;;5031981;28;20190;-81
2022/05/01 09:54:23;;;;;;;0.20;0.20;;;20.60;58.20;;;;;;5014563;28;20201;-80
2022/05/01 09:57:00;;;;;;;0.25;0.25;;;20.50;60.20;;;;;;5034960;28;20225;-80
2022/05/01 09:59:28;;;;;;;0.22;0.22;;;20.50;57.90;;;;;;5034627;28;20193;-81
2022/05/01 10:02:02;;;;;;;0.47;0.30;;;21.00;58.50;;;;;;5010760;28;20547;-80
2022/05/01 10:04:29;;;;;;;0.20;0.20;;;21.30;57.70;;;;;;5011113;28;20209;-79
2022/05/01 10:06:57;;;;;;;0.45;0.45;;;21.70;57.30;;;;;;5014427;28;20221;-79
2022/05/01 10:09:25;;;;;;;0.20;0.20;;;20.60;54.90;;;;;;5031967;28;20665;-80
2022/05/01 10:11:57;;;;;;;0.20;0.20;;;20.20;55.80;;;;;;5014312;28;20217;-80
2022/05/01 10:14:24;;;;;;;0.30;0.30;;;19.30;57.00;;;;;;5014179;28;20568;-80
2022/05/01 10:16:51;;;;;;;0.20;0.20;;;18.50;57.90;;;;;;5015216;28;20324;-80
2022/05/01 10:19:20;;;;;;;0.20;0.20;;;17.80;57.90;;;;;;5032368;28;20553;-79
2022/05/01 10:21:48;;;;;;;0.20;0.20;;;17.10;61.10;;;;;;5041468;28;20704;-80
2022/05/01 10:24:15;;;;;;;0.30;0.30;;;16.60;62.50;;;;;;5045188;28;20205;-80
2022/05/01 10:27:20;;;;;;;0.22;0.22;;;16.50;62.50;;;;;;5036707;28;20255;-80
2022/05/01 10:33:17;;;;;;;0.30;0.30;;;15.30;63.20;;;;;;5055621;28;20251;-81
2022/05/01 10:36:10;;;;;;;0.30;0.30;;;15.20;63.70;;;;;;5053950;28;20236;-81
2022/05/01 10:39:02;;;;;;;0.30;0.30;;;15.00;64.80;;;;;;5054030;28;20193;-81
2022/05/01 10:41:29;;;;;;;0.30;0.30;;;15.00;62.60;;;;;;5053888;28;20763;-81
2022/05/01 10:43:56;;;;;;;0.30;0.30;;;15.10;62.20;;;;;;5054032;28;20225;-84
2022/05/01 10:46:22;;;;;;;0.30;0.30;;;14.80;62.50;;;;;;5053838;28;20603;-81
2022/05/01 10:48:49;;;;;;;0.30;0.30;;;14.80;65.00;;;;;;5055259;28;20208;-82
2022/05/01 10:51:30;;;;;;;0.40;0.40;;;14.90;65.90;;;;;;5053907;28;20205;-82
2022/05/01 10:54:10;;;;;;;0.30;0.30;;;15.00;65.00;;;;;;5055113;28;20284;-81
2022/05/01 10:56:41;;;;;;;0.30;0.30;;;16.20;65.80;;;;;;5054941;28;20190;-82
2022/05/01 10:59:29;;;;;;;0.20;0.20;;;17.60;68.00;;;;;;5055117;28;20189;-81
2022/05/01 11:02:00;;;;;;;0.38;0.35;;;18.90;58.60;;;;;;5045049;28;20233;-81
2022/05/01 11:04:39;;;;;;;0.30;0.30;;;19.40;59.40;;;;;;5070212;28;20198;-81
2022/05/01 11:07:05;;;;;;;0.20;0.20;;;20.20;58.70;;;;;;5037043;28;20259;-81
2022/05/01 11:09:36;;;;;;;0.30;0.30;;;21.00;57.00;;;;;;5053098;28;20468;-86
2022/05/01 11:12:04;;;;;;;0.20;0.20;;;21.40;52.90;;;;;;5036977;28;20268;-86
2022/05/01 11:14:49;;;;;;;0.38;0.38;;;20.80;57.20;;;;;;5053378;28;20221;-85
2022/05/01 11:17:26;;;;;;;0.20;0.20;;;21.60;58.40;;;;;;5053548;28;20676;-83
2022/05/01 11:19:52;;;;;;;0.20;0.20;;;21.70;50.70;;;;;;5053566;28;20255;-84
2022/05/01 11:22:27;;;;;;;0.22;0.22;;;21.40;48.00;;;;;;5039262;28;20246;-83
2022/05/01 11:24:53;;;;;;;0.20;0.20;;;21.90;55.90;;;;;;5034804;28;20645;-85
2022/05/01 11:27:21;;;;;;;0.20;0.20;;;22.10;50.40;;;;;;5034680;28;20652;-84
2022/05/01 11:30:06;;;;;;;0.20;0.20;;;22.00;49.10;;;;;;5035069;28;20625;-82
2022/05/01 11:32:48;;;;;;;0.20;0.20;;;21.20;49.10;;;;;;5033208;28;20209;-88
2022/05/01 11:35:14;;;;;;;0.20;0.20;;;20.00;50.50;;;;;;5034663;28;20707;-86
2022/05/01 11:38:07;;;;;;;0.20;0.20;;;21.00;53.10;;;;;;5016426;28;20289;-83
2022/05/01 11:40:34;;;;;;;0.20;0.20;;;22.00;55.50;;;;;;5034266;28;20210;-85
2022/05/01 11:43:20;;;;;;;0.20;0.20;;;23.30;50.70;;;;;;5016505;28;20206;-84
2022/05/01 11:45:46;;;;;;;3.05;0.77;;;23.80;49.30;;;;;;5033262;28;20252;-83
2022/05/01 11:48:17;;;;;;;0.20;0.20;;;21.90;47.80;;;;;;5034468;28;20548;-85
2022/05/01 11:50:43;;;;;;;0.20;0.20;;;20.90;54.70;;;;;;5032930;28;20221;-83
2022/05/01 11:53:20;;;;;;;0.20;0.20;;;20.20;53.50;;;;;;5034059;28;20202;-83
2022/05/01 12:04:25;;;;;;;0.30;0.30;;;16.90;59.00;;;;;;5034372;28;20197;-84
2022/05/01 12:07:15;;;;;;;0.35;0.35;;;16.70;59.80;;;;;;5032806;28;20234;-82
2022/05/01 12:09:41;;;;;;;0.30;0.30;;;16.50;61.10;;;;;;5016033;28;20210;-83
2022/05/01 12:12:11;;;;;;;0.30;0.30;;;16.50;65.40;;;;;;5033913;28;20210;-79
2022/05/01 12:14:38;;;;;;;0.30;0.30;;;16.50;60.10;;;;;;5033750;28;20652;-78
2022/05/01 12:17:13;;;;;;;0.30;0.30;;;16.60;62.10;;;;;;5033693;28;20194;-79
2022/05/01 12:19:41;;;;;;;0.30;0.30;;;16.90;60.20;;;;;;5015897;28;20201;-79
2022/05/01 12:22:10;;;;;;;0.40;0.40;;;17.20;61.10;;;;;;5031410;28;20735;-80
2022/05/01 12:24:36;;;;;;;0.30;0.30;;;18.30;61.90;;;;;;5032152;28;20206;-79
2022/05/01 12:27:03;;;;;;;0.20;0.20;;;20.00;58.40;;;;;;5033399;28;20198;-80
2022/05/01 12:29:30;;;;;;;0.20;0.20;;;20.10;53.50;;;;;;5035381;28;20201;-81
2022/05/01 12:32:11;;;;;;;0.20;0.20;;;20.20;57.40;;;;;;5053516;28;20669;-81
2022/05/01 12:34:49;;;;;;;0.40;0.40;;;20.10;55.00;;;;;;5035893;28;20221;-83
2022/05/01 12:37:21;;;;;;;0.30;0.30;;;19.70;54.10;;;;;;5053462;28;20190;-82
2022/05/01 12:39:59;;;;;;;0.20;0.20;;;18.50;56.40;;;;;;5035433;28;20276;-81
2022/05/01 12:45:17;;;;;;;0.57;0.57;;;18.40;58.50;;;;;;5051913;28;20224;-83
2022/05/01 12:47:46;;;;;;;0.22;0.22;;;18.00;58.00;;;;;;5034212;28;20560;-82
2022/05/01 12:50:18;;;;;;;0.20;0.20;;;17.50;57.70;;;;;;5015049;28;20403;-82
2022/05/01 12:52:46;;;;;;;0.30;0.30;;;17.20;58.40;;;;;;5031543;28;20202;-82
2022/05/01 12:55:17;;;;;;;0.30;0.30;;;16.90;59.40;;;;;;5032735;28;20276;-83
2022/05/01 12:57:51;;;;;;;0.30;0.30;;;17.00;59.90;;;;;;5015391;28;20209;-81
2022/05/01 13:00:31;;;;;;;0.30;0.30;;;16.70;59.40;;;;;;5004245;28;20284;-82
2022/05/01 13:03:28;;;;;;;0.30;0.30;;;16.50;59.50;;;;;;5034847;28;20209;-81
2022/05/01 13:05:57;;;;;;;0.30;0.30;;;16.30;59.20;;;;;;4995530;28;20199;-82
2022/05/01 13:08:22;;;;;;;0.77;0.50;;;16.00;60.00;;;;;;5000164;28;20210;-82
2022/05/01 13:11:23;;;;;;;0.22;0.22;;;16.20;62.40;;;;;;5011687;28;20525;-81
2022/05/01 13:13:49;;;;;;;0.30;0.30;;;16.50;61.80;;;;;;5012919;28;20322;-80
2022/05/01 13:16:16;;;;;;;0.30;0.30;;;16.50;61.00;;;;;;5012756;28;20195;-82
2022/05/01 13:18:46;;;;;;;0.32;0.32;;;16.40;59.90;;;;;;4997195;28;20279;-81
2022/05/01 13:21:12;;;;;;;0.40;0.40;;;16.20;61.80;;;;;;5014319;28;20708;-81
2022/05/01 13:23:42;;;;;;;0.30;0.30;;;16.00;59.70;;;;;;5048686;28;20211;-82
2022/05/01 13:26:08;;;;;;;0.30;0.30;;;15.70;59.40;;;;;;5054483;28;20208;-82
2022/05/01 13:28:34;;;;;;;0.30;0.30;;;15.70;60.30;;;;;;5072244;28;20197;-82
2022/05/01 13:31:01;;;;;;;0.30;0.30;;;15.70;59.50;;;;;;5072498;28;20280;-80
2022/05/01 13:33:27;;;;;;;0.38;0.38;;;15.50;58.40;;;;;;5054238;28;20231;-81
2022/05/01 13:35:53;;;;;;;0.52;0.50;;;15.60;59.50;;;;;;5072689;28;20216;-80